Time;durP1;ratioP1;P1;durP2;ratioP2;P2;SDS_P1;SDS_P2;PMS_P1;PMS_P2;Temp;Humidity;BMP_temperature;BMP_pressure;BME280_temperature;BME280_humidity;BME280_pressure;Samples;Min_cycle;Max_cycle;Signal;HPM_P1;HPM_P2
2023/06/08 00:01:55;;;;;;;8.77;7.90;;;18.80;99.90;;;;;;4967568;29;20212;-75
2023/06/08 00:04:22;;;;;;;10.70;9.60;;;18.70;99.90;;;;;;4965086;29;20196;-72
2023/06/08 00:06:49;;;;;;;8.53;7.63;;;18.70;99.90;;;;;;4965538;29;20165;-73
2023/06/08 00:09:15;;;;;;;11.00;8.97;;;18.80;99.90;;;;;;4963318;29;20472;-74
2023/06/08 00:11:42;;;;;;;11.30;9.90;;;18.60;99.90;;;;;;4956558;29;20473;-76
2023/06/08 00:14:08;;;;;;;9.67;8.20;;;18.60;99.90;;;;;;4912102;29;20426;-74
2023/06/08 00:16:34;;;;;;;9.33;8.43;;;18.60;99.90;;;;;;4946014;29;20679;-75
2023/06/08 00:19:02;;;;;;;11.27;7.80;;;18.50;99.90;;;;;;4945044;29;20568;-76
2023/06/08 00:21:29;;;;;;;8.53;7.53;;;18.40;99.90;;;;;;4929134;29;20423;-76
2023/06/08 00:23:55;;;;;;;7.97;7.20;;;18.40;99.90;;;;;;4934948;29;20426;-75
2023/06/08 00:26:21;;;;;;;8.77;7.77;;;18.30;99.90;;;;;;4946227;29;20770;-75
2023/06/08 00:28:48;;;;;;;9.80;8.80;;;18.30;99.90;;;;;;4933992;29;20450;-75
2023/06/08 00:31:18;;;;;;;8.50;7.50;;;18.30;99.90;;;;;;4909142;29;20971;-74
2023/06/08 00:33:43;;;;;;;9.80;8.87;;;18.20;99.90;;;;;;4945079;29;20505;-74
2023/06/08 00:36:10;;;;;;;9.20;8.30;;;18.20;99.90;;;;;;4947646;29;20443;-74
2023/06/08 00:38:35;;;;;;;8.77;7.87;;;18.20;99.90;;;;;;4938371;29;20186;-75
2023/06/08 00:41:03;;;;;;;7.80;7.00;;;18.10;99.90;;;;;;4937180;29;20688;-75
2023/06/08 00:43:28;;;;;;;7.60;6.87;;;18.10;99.90;;;;;;4928370;29;20517;-74
2023/06/08 00:45:56;;;;;;;8.43;7.50;;;18.10;99.90;;;;;;4922726;29;20356;-75
2023/06/08 00:48:23;;;;;;;8.73;7.93;;;18.00;99.90;;;;;;4944741;29;20170;-75
2023/06/08 00:50:50;;;;;;;9.37;8.47;;;18.00;99.90;;;;;;4927797;29;20467;-74
2023/06/08 00:53:17;;;;;;;9.63;7.60;;;18.10;99.90;;;;;;4947169;29;20478;-75
2023/06/08 00:55:44;;;;;;;9.20;7.87;;;18.00;99.90;;;;;;4945226;29;20417;-74
2023/06/08 00:58:13;;;;;;;10.87;7.40;;;18.00;99.90;;;;;;4927421;29;20271;-73
2023/06/08 01:00:46;;;;;;;7.30;6.63;;;18.00;99.90;;;;;;4893681;29;20510;-75
2023/06/08 01:03:14;;;;;;;8.73;7.60;;;18.00;99.90;;;;;;4929553;29;20438;-74
2023/06/08 01:05:43;;;;;;;6.27;5.67;;;18.00;99.90;;;;;;4913587;29;20457;-76
2023/06/08 01:08:31;;;;;;;7.00;6.30;;;17.90;99.90;;;;;;4929856;29;20410;-74
2023/06/08 01:11:31;;;;;;;7.13;6.43;;;17.80;99.90;;;;;;4912607;29;20462;-76
2023/06/08 01:14:13;;;;;;;6.80;6.20;;;17.80;99.90;;;;;;4912195;29;20434;-76
2023/06/08 01:16:44;;;;;;;7.33;6.63;;;17.70;99.90;;;;;;4952235;29;20431;-73
2023/06/08 01:19:17;;;;;;;8.03;6.73;;;17.70;99.90;;;;;;4915687;29;20449;-74
2023/06/08 01:22:04;;;;;;;6.83;5.90;;;17.70;99.90;;;;;;4957508;29;20464;-73
2023/06/08 01:24:35;;;;;;;6.40;5.80;;;17.60;99.90;;;;;;4925296;29;20457;-73
2023/06/08 01:27:06;;;;;;;9.07;8.17;;;17.60;99.90;;;;;;4931291;29;20701;-73
2023/06/08 01:29:33;;;;;;;9.20;8.40;;;17.60;99.90;;;;;;4949084;29;20861;-75
2023/06/08 01:31:59;;;;;;;11.13;9.80;;;17.50;99.90;;;;;;4940891;29;20458;-72
2023/06/08 01:34:26;;;;;;;10.33;9.40;;;17.50;99.90;;;;;;4945113;29;20441;-72
2023/06/08 01:37:02;;;;;;;16.23;13.57;;;17.50;99.90;;;;;;4945184;29;20437;-72
2023/06/08 01:39:59;;;;;;;15.53;12.40;;;17.50;99.90;;;;;;4936253;29;20471;-73
2023/06/08 01:42:27;;;;;;;12.30;9.50;;;17.50;99.90;;;;;;4938963;29;20425;-73
2023/06/08 01:45:00;;;;;;;10.37;9.27;;;17.40;99.90;;;;;;4960948;29;21013;-74
2023/06/08 01:47:33;;;;;;;11.53;10.33;;;17.40;99.90;;;;;;4977728;29;20478;-76
2023/06/08 01:50:00;;;;;;;10.90;9.80;;;17.40;99.90;;;;;;4956022;29;20450;-75
2023/06/08 01:52:26;;;;;;;10.73;9.70;;;17.30;99.90;;;;;;4967827;29;20571;-73
2023/06/08 01:54:52;;;;;;;10.83;9.73;;;17.20;99.90;;;;;;4952081;29;20452;-75
2023/06/08 01:57:18;;;;;;;10.30;9.30;;;17.10;99.90;;;;;;4950396;29;20421;-76
2023/06/08 01:59:44;;;;;;;13.30;12.10;;;17.10;99.90;;;;;;4937617;29;20431;-78
2023/06/08 02:02:11;;;;;;;12.90;11.70;;;17.00;99.90;;;;;;4938421;29;20172;-75
2023/06/08 02:04:37;;;;;;;12.20;10.93;;;17.00;99.90;;;;;;4953735;29;20429;-74
2023/06/08 02:07:02;;;;;;;10.67;9.67;;;17.00;99.90;;;;;;4948801;29;20180;-73
2023/06/08 02:09:28;;;;;;;18.70;14.77;;;17.00;99.90;;;;;;4964253;29;20242;-73
2023/06/08 02:12:07;;;;;;;15.57;12.63;;;17.00;99.90;;;;;;4979805;28;20483;-74
2023/06/08 02:14:34;;;;;;;12.20;10.90;;;16.90;99.90;;;;;;4952530;29;20185;-74
2023/06/08 02:17:00;;;;;;;11.50;10.23;;;16.90;99.90;;;;;;4947051;29;20514;-75
2023/06/08 02:19:30;;;;;;;15.10;11.57;;;16.90;99.90;;;;;;4953218;28;20444;-73
2023/06/08 02:21:57;;;;;;;11.20;10.10;;;16.90;99.90;;;;;;4966966;28;20449;-74
2023/06/08 02:24:22;;;;;;;9.70;8.70;;;16.90;99.90;;;;;;4967863;28;20525;-74
2023/06/08 02:26:52;;;;;;;9.20;8.40;;;16.80;99.90;;;;;;4976095;28;20417;-75
2023/06/08 02:29:18;;;;;;;7.70;6.97;;;16.80;99.90;;;;;;4945067;29;20285;-74
2023/06/08 02:31:43;;;;;;;11.30;8.30;;;16.70;99.90;;;;;;4940216;29;20464;-73
2023/06/08 02:34:11;;;;;;;10.20;9.30;;;16.70;99.90;;;;;;4948099;29;20449;-72
2023/06/08 02:36:37;;;;;;;12.60;10.27;;;16.60;99.90;;;;;;4931276;29;20441;-73
2023/06/08 02:39:02;;;;;;;11.57;10.43;;;16.70;99.90;;;;;;4941179;29;20289;-73
2023/06/08 02:41:29;;;;;;;11.13;9.87;;;16.60;99.90;;;;;;4940106;29;20201;-73
2023/06/08 02:43:54;;;;;;;11.67;9.77;;;16.60;99.90;;;;;;4975050;28;20427;-72
2023/06/08 02:46:20;;;;;;;16.40;14.50;;;16.60;99.90;;;;;;4949272;29;20197;-71
2023/06/08 02:48:46;;;;;;;15.93;12.93;;;16.60;99.90;;;;;;4926989;29;20524;-73
2023/06/08 02:51:12;;;;;;;13.10;11.30;;;16.60;99.90;;;;;;4962790;29;20221;-73
2023/06/08 02:53:37;;;;;;;15.27;12.40;;;16.50;99.90;;;;;;4945308;29;20704;-72
2023/06/08 02:56:03;;;;;;;13.47;11.13;;;16.50;99.90;;;;;;4945958;29;20182;-73
2023/06/08 02:58:30;;;;;;;12.73;10.20;;;16.50;99.90;;;;;;4945345;29;20270;-73
2023/06/08 03:01:00;;;;;;;14.10;12.37;;;16.50;99.90;;;;;;4945209;29;20872;-72
2023/06/08 03:03:45;;;;;;;12.77;11.33;;;16.40;99.90;;;;;;4945530;29;20433;-73
2023/06/08 03:06:18;;;;;;;13.40;10.33;;;16.40;99.90;;;;;;4946873;29;20451;-73
2023/06/08 03:08:47;;;;;;;11.27;10.07;;;16.40;99.90;;;;;;4931452;29;20903;-73
2023/06/08 03:11:14;;;;;;;17.27;15.47;;;16.40;99.90;;;;;;4954754;28;20554;-73
2023/06/08 03:13:40;;;;;;;18.50;13.67;;;16.40;99.90;;;;;;4952055;28;20483;-73
2023/06/08 03:16:05;;;;;;;14.13;12.63;;;16.40;99.90;;;;;;4957052;28;20427;-73
2023/06/08 03:18:32;;;;;;;14.10;12.63;;;16.40;99.90;;;;;;4938843;29;20183;-73
2023/06/08 03:20:58;;;;;;;14.67;11.63;;;16.30;99.90;;;;;;4939023;29;20192;-73
2023/06/08 03:23:24;;;;;;;12.77;11.33;;;16.40;99.90;;;;;;4959166;28;20872;-72
2023/06/08 03:25:52;;;;;;;11.27;10.17;;;16.40;99.90;;;;;;4950228;29;20183;-73
2023/06/08 03:28:18;;;;;;;12.40;9.87;;;16.30;99.90;;;;;;4939612;28;20416;-72
2023/06/08 03:30:45;;;;;;;9.97;8.97;;;16.30;99.90;;;;;;4949671;28;20447;-72
2023/06/08 03:33:11;;;;;;;9.80;8.80;;;16.30;99.90;;;;;;4941452;29;20460;-72
2023/06/08 03:35:46;;;;;;;14.20;12.70;;;16.20;99.90;;;;;;4936713;29;20705;-72
2023/06/08 03:38:20;;;;;;;12.23;10.00;;;16.20;99.90;;;;;;4930959;29;20434;-72
2023/06/08 03:40:47;;;;;;;13.03;11.73;;;16.20;99.90;;;;;;4936567;28;20709;-73
2023/06/08 03:43:13;;;;;;;13.47;12.27;;;16.20;99.90;;;;;;4936470;29;20477;-72
2023/06/08 03:45:39;;;;;;;12.67;11.37;;;16.20;99.90;;;;;;4940652;28;20434;-72
2023/06/08 03:48:05;;;;;;;11.83;10.73;;;16.30;99.90;;;;;;4955639;28;20209;-73
2023/06/08 03:50:33;;;;;;;14.10;12.17;;;16.30;99.90;;;;;;4933419;29;20287;-72
2023/06/08 03:52:58;;;;;;;13.97;12.47;;;16.30;99.90;;;;;;4937538;29;20559;-73
2023/06/08 03:55:26;;;;;;;13.57;10.30;;;16.30;99.90;;;;;;4937081;29;20894;-72
2023/06/08 03:57:52;;;;;;;14.07;12.30;;;16.30;99.90;;;;;;4936150;29;20195;-73
2023/06/08 04:00:20;;;;;;;12.60;9.93;;;16.30;99.90;;;;;;4939934;29;20954;-73
2023/06/08 04:02:50;;;;;;;11.47;10.33;;;16.30;99.90;;;;;;4953659;29;20574;-73
2023/06/08 04:05:20;;;;;;;16.03;13.03;;;16.40;99.90;;;;;;4934491;29;20935;-73
2023/06/08 04:07:47;;;;;;;13.60;12.20;;;16.40;99.90;;;;;;4936425;29;20496;-72
2023/06/08 04:10:13;;;;;;;13.97;12.07;;;16.40;99.90;;;;;;4945154;28;20274;-73
2023/06/08 04:12:40;;;;;;;11.87;10.77;;;16.50;99.90;;;;;;4955294;29;20607;-73
2023/06/08 04:15:07;;;;;;;11.80;10.60;;;16.50;99.90;;;;;;4943130;29;20771;-73
2023/06/08 04:17:33;;;;;;;13.70;11.30;;;16.50;99.90;;;;;;4936491;29;20220;-72
2023/06/08 04:20:00;;;;;;;13.87;12.57;;;16.60;99.90;;;;;;4935764;29;20813;-72
2023/06/08 04:22:27;;;;;;;14.63;10.73;;;16.60;99.90;;;;;;4954828;29;20491;-72
2023/06/08 04:24:53;;;;;;;11.87;10.80;;;16.60;99.90;;;;;;4930723;29;20292;-73
2023/06/08 04:27:19;;;;;;;11.43;10.43;;;16.70;99.90;;;;;;4917001;29;20411;-72
2023/06/08 04:29:45;;;;;;;12.23;11.03;;;16.70;99.90;;;;;;4942882;29;20227;-73
2023/06/08 04:32:11;;;;;;;11.43;10.30;;;16.70;99.90;;;;;;4956891;29;20205;-73
2023/06/08 04:34:37;;;;;;;9.33;8.53;;;16.80;99.90;;;;;;4949533;29;20425;-72
2023/06/08 04:37:03;;;;;;;9.33;8.47;;;16.90;99.90;;;;;;4951729;28;20593;-73
2023/06/08 04:39:29;;;;;;;15.17;13.10;;;16.90;99.90;;;;;;4939152;29;20476;-72
2023/06/08 04:41:57;;;;;;;11.00;9.93;;;17.00;99.90;;;;;;4939533;29;20514;-73
2023/06/08 04:44:24;;;;;;;11.70;10.53;;;17.10;99.90;;;;;;4942596;29;20437;-72
2023/06/08 04:46:53;;;;;;;15.20;13.80;;;17.30;99.90;;;;;;4959298;29;20412;-72
2023/06/08 04:49:19;;;;;;;14.73;13.27;;;17.60;99.90;;;;;;4944046;29;20640;-72
2023/06/08 04:51:46;;;;;;;13.47;12.07;;;18.10;99.90;;;;;;4925407;29;20519;-73
2023/06/08 04:54:15;;;;;;;12.83;11.30;;;18.50;99.90;;;;;;4952937;29;20431;-74
2023/06/08 04:56:41;;;;;;;12.70;11.40;;;18.80;99.90;;;;;;4930095;29;20481;-72
2023/06/08 04:59:08;;;;;;;15.90;11.17;;;19.20;99.90;;;;;;4930779;29;20460;-72
2023/06/08 05:01:34;;;;;;;10.73;9.53;;;19.50;99.90;;;;;;4941412;29;20531;-73
2023/06/08 05:04:00;;;;;;;13.83;10.03;;;19.80;99.90;;;;;;4947146;29;20489;-73
2023/06/08 05:06:25;;;;;;;13.53;11.83;;;20.10;99.90;;;;;;4945941;29;20192;-73
2023/06/08 05:08:51;;;;;;;11.93;10.57;;;20.30;99.90;;;;;;4943544;29;20755;-73
2023/06/08 05:11:16;;;;;;;13.67;12.20;;;20.50;99.90;;;;;;4952129;28;20496;-74
2023/06/08 05:13:42;;;;;;;10.30;9.30;;;20.60;99.90;;;;;;4963074;29;20603;-73
2023/06/08 05:16:11;;;;;;;11.03;9.30;;;20.80;99.90;;;;;;4964976;29;20201;-74
2023/06/08 05:18:36;;;;;;;11.93;9.97;;;21.00;99.70;;;;;;4958423;29;20220;-72
2023/06/08 05:21:02;;;;;;;10.83;9.80;;;21.20;97.90;;;;;;4964678;29;20833;-71
2023/06/08 05:23:28;;;;;;;12.13;10.97;;;21.20;96.40;;;;;;4962139;29;20205;-71
2023/06/08 05:25:53;;;;;;;11.70;10.30;;;21.40;95.40;;;;;;4962592;29;20189;-73
2023/06/08 05:28:19;;;;;;;13.80;12.47;;;21.60;94.60;;;;;;4962313;29;20192;-72
2023/06/08 05:30:45;;;;;;;14.00;10.10;;;21.70;92.20;;;;;;4963855;29;20201;-73
2023/06/08 05:33:10;;;;;;;12.17;10.87;;;21.90;91.20;;;;;;4961806;29;20220;-72
2023/06/08 05:35:36;;;;;;;12.57;10.27;;;22.00;90.00;;;;;;4943793;29;20182;-72
2023/06/08 05:38:02;;;;;;;13.60;9.13;;;22.10;86.30;;;;;;4943822;29;20197;-72
2023/06/08 05:40:27;;;;;;;8.97;8.17;;;22.30;85.50;;;;;;4955033;29;20272;-73
2023/06/08 05:42:53;;;;;;;8.03;7.23;;;22.70;83.60;;;;;;4963253;29;20413;-72
2023/06/08 05:45:19;;;;;;;8.00;7.20;;;23.00;77.10;;;;;;4948866;29;20247;-73
2023/06/08 05:47:44;;;;;;;7.80;6.70;;;23.40;72.10;;;;;;4944546;29;20193;-72
2023/06/08 05:50:10;;;;;;;8.17;6.87;;;23.70;68.70;;;;;;4953065;29;20218;-72
2023/06/08 05:52:36;;;;;;;8.63;7.73;;;24.00;66.10;;;;;;4944999;29;20201;-73
2023/06/08 05:55:01;;;;;;;8.00;7.20;;;24.20;62.90;;;;;;4944262;29;20506;-73
2023/06/08 05:57:27;;;;;;;6.73;6.07;;;24.40;61.60;;;;;;4956467;29;20197;-73
2023/06/08 05:59:53;;;;;;;10.17;7.30;;;24.60;60.20;;;;;;4964215;29;20197;-72
2023/06/08 06:02:18;;;;;;;7.37;6.67;;;24.80;58.60;;;;;;4951233;29;20635;-73
2023/06/08 06:04:44;;;;;;;9.37;8.47;;;24.90;58.50;;;;;;4957750;29;20279;-73
2023/06/08 06:07:09;;;;;;;9.57;8.70;;;24.80;57.90;;;;;;4958083;29;20384;-73
2023/06/08 06:09:35;;;;;;;9.10;8.30;;;24.80;57.90;;;;;;4944305;29;20265;-75
2023/06/08 06:12:01;;;;;;;9.23;8.43;;;24.80;57.50;;;;;;4943301;29;20228;-73
2023/06/08 06:14:38;;;;;;;14.07;12.77;;;24.90;57.60;;;;;;4944000;29;20182;-72
2023/06/08 06:17:05;;;;;;;8.70;7.90;;;25.00;57.50;;;;;;4953320;29;20709;-72
2023/06/08 06:19:36;;;;;;;7.90;7.20;;;25.20;56.80;;;;;;4960573;29;20440;-73
2023/06/08 06:22:02;;;;;;;9.70;7.33;;;25.40;56.00;;;;;;4963451;29;20495;-74
2023/06/08 06:24:28;;;;;;;7.67;6.97;;;25.40;55.30;;;;;;4962110;29;20568;-72
2023/06/08 06:26:53;;;;;;;9.90;7.10;;;25.50;54.90;;;;;;4943510;29;20912;-73
2023/06/08 06:29:19;;;;;;;7.70;7.10;;;25.60;53.90;;;;;;4926411;29;20645;-73
2023/06/08 06:31:44;;;;;;;8.30;7.50;;;25.60;52.70;;;;;;4943120;29;20620;-73
2023/06/08 06:34:10;;;;;;;7.60;6.80;;;25.60;52.70;;;;;;4952078;29;20197;-72
2023/06/08 06:36:36;;;;;;;6.53;5.90;;;25.60;52.80;;;;;;4962144;29;20183;-73
2023/06/08 06:39:02;;;;;;;6.17;5.57;;;25.60;52.50;;;;;;4951051;29;20449;-73
2023/06/08 06:41:28;;;;;;;5.40;4.90;;;25.70;52.20;;;;;;4944375;29;20444;-73
2023/06/08 06:43:54;;;;;;;6.30;5.80;;;25.80;51.60;;;;;;4957201;29;20201;-73
2023/06/08 06:46:21;;;;;;;6.30;5.70;;;25.80;51.30;;;;;;4960747;29;20493;-74
2023/06/08 06:48:47;;;;;;;6.13;5.40;;;25.70;51.40;;;;;;4947809;29;20197;-73
2023/06/08 06:51:12;;;;;;;5.57;5.07;;;25.80;51.30;;;;;;4944944;29;20436;-74
2023/06/08 06:53:38;;;;;;;8.00;5.37;;;25.80;51.20;;;;;;4943942;29;20186;-76
2023/06/08 06:56:05;;;;;;;6.83;6.10;;;25.70;50.90;;;;;;4930523;29;20650;-73
2023/06/08 06:58:31;;;;;;;6.20;5.60;;;25.50;51.20;;;;;;4951646;28;20193;-72
2023/06/08 07:00:57;;;;;;;7.00;6.40;;;25.50;51.40;;;;;;4927925;29;20418;-74
2023/06/08 07:03:26;;;;;;;8.03;5.90;;;25.60;50.90;;;;;;4948529;29;20176;-74
2023/06/08 07:05:58;;;;;;;6.33;5.77;;;25.50;50.90;;;;;;4949782;29;20412;-74
2023/06/08 07:08:25;;;;;;;6.50;6.00;;;25.40;50.90;;;;;;4962926;29;20417;-73
2023/06/08 07:10:51;;;;;;;6.07;5.57;;;25.30;51.30;;;;;;4960113;29;20472;-73
2023/06/08 07:13:17;;;;;;;6.00;5.50;;;25.40;51.10;;;;;;4910122;29;20469;-75
2023/06/08 07:15:42;;;;;;;6.33;5.73;;;25.30;50.70;;;;;;4924300;29;20182;-74
2023/06/08 07:18:08;;;;;;;7.07;6.47;;;25.20;51.20;;;;;;4913998;29;20193;-73
2023/06/08 07:20:34;;;;;;;6.10;5.50;;;25.10;51.50;;;;;;4945320;29;20210;-74
2023/06/08 07:23:00;;;;;;;5.40;4.93;;;25.20;51.60;;;;;;4949077;29;20204;-74
2023/06/08 07:25:25;;;;;;;5.00;4.60;;;25.40;51.60;;;;;;4965996;29;20862;-74
2023/06/08 07:27:51;;;;;;;5.17;4.43;;;25.50;51.10;;;;;;4931259;29;20262;-74
2023/06/08 07:30:17;;;;;;;5.37;4.87;;;25.40;50.90;;;;;;4954721;29;20300;-74
2023/06/08 07:32:43;;;;;;;5.77;5.27;;;25.40;51.30;;;;;;4929198;29;20217;-75
2023/06/08 07:35:09;;;;;;;8.17;7.30;;;25.20;51.30;;;;;;4927334;29;20191;-74
2023/06/08 07:37:36;;;;;;;11.73;6.60;;;25.00;51.50;;;;;;4924389;29;20487;-73
2023/06/08 07:40:05;;;;;;;6.60;6.00;;;24.60;52.10;;;;;;4925082;29;20446;-74
2023/06/08 07:42:31;;;;;;;7.23;6.53;;;24.40;52.80;;;;;;4926495;29;20419;-74
2023/06/08 07:44:56;;;;;;;5.70;5.20;;;24.10;53.30;;;;;;4926342;29;20827;-75
2023/06/08 07:47:22;;;;;;;7.73;7.03;;;23.90;54.10;;;;;;4944939;29;20655;-75
2023/06/08 07:49:47;;;;;;;7.87;7.03;;;23.80;54.40;;;;;;4933726;29;20657;-73
2023/06/08 07:52:14;;;;;;;6.93;6.23;;;23.70;55.00;;;;;;4924079;29;20221;-73
2023/06/08 07:54:40;;;;;;;6.20;5.63;;;23.60;55.70;;;;;;4945762;29;20197;-74
2023/06/08 07:57:05;;;;;;;6.13;5.57;;;23.50;55.60;;;;;;4963123;29;20757;-75
2023/06/08 07:59:31;;;;;;;6.10;5.50;;;23.60;55.90;;;;;;4961781;29;20185;-74
2023/06/08 08:01:58;;;;;;;7.20;6.50;;;23.50;55.70;;;;;;4941841;29;20276;-74
2023/06/08 08:04:23;;;;;;;7.70;7.00;;;23.60;55.80;;;;;;4953927;29;20446;-74
2023/06/08 08:06:49;;;;;;;7.13;6.47;;;23.60;55.90;;;;;;4926322;29;20194;-73
2023/06/08 08:09:14;;;;;;;8.93;7.27;;;23.50;56.10;;;;;;4958288;29;20237;-73
2023/06/08 08:11:40;;;;;;;8.63;7.03;;;23.50;56.30;;;;;;4976130;28;20642;-74
2023/06/08 08:14:09;;;;;;;7.10;6.40;;;23.50;56.30;;;;;;4967992;28;20186;-75
2023/06/08 08:16:38;;;;;;;6.80;6.30;;;23.60;56.50;;;;;;4952965;29;20190;-75
2023/06/08 08:19:03;;;;;;;9.83;7.17;;;23.70;56.40;;;;;;4951221;29;20455;-74
2023/06/08 08:21:29;;;;;;;7.43;6.27;;;23.80;56.00;;;;;;4965539;29;20432;-74
2023/06/08 08:23:54;;;;;;;7.27;6.30;;;23.80;56.00;;;;;;4954814;28;20311;-74
2023/06/08 08:26:21;;;;;;;6.13;5.53;;;23.70;56.20;;;;;;4959687;28;20185;-74
2023/06/08 08:28:46;;;;;;;6.30;5.70;;;23.70;56.60;;;;;;4951156;29;20239;-73
2023/06/08 08:31:12;;;;;;;6.00;5.40;;;23.80;56.70;;;;;;4949757;29;20477;-76
2023/06/08 08:33:38;;;;;;;5.43;5.03;;;24.00;56.50;;;;;;4973994;28;20208;-73
2023/06/08 08:36:05;;;;;;;6.50;5.90;;;24.10;56.20;;;;;;4950763;28;20414;-73
2023/06/08 08:38:31;;;;;;;7.57;6.87;;;24.30;56.10;;;;;;4946579;29;20182;-76
2023/06/08 08:41:08;;;;;;;6.67;6.03;;;24.40;56.20;;;;;;4947863;29;20413;-74
2023/06/08 08:43:46;;;;;;;7.13;6.53;;;24.40;55.60;;;;;;4950695;29;20177;-75
2023/06/08 08:46:12;;;;;;;7.43;6.77;;;24.50;55.40;;;;;;4955211;28;20404;-73
2023/06/08 08:48:42;;;;;;;6.67;5.97;;;24.30;55.70;;;;;;4981061;28;20495;-73
2023/06/08 08:51:18;;;;;;;6.37;5.77;;;24.30;56.10;;;;;;4950890;29;20433;-75
2023/06/08 08:53:51;;;;;;;6.97;6.37;;;24.40;55.80;;;;;;4953629;28;20440;-77
2023/06/08 08:56:21;;;;;;;7.13;5.60;;;24.40;55.50;;;;;;4938060;29;20420;-77
2023/06/08 08:58:54;;;;;;;5.77;5.27;;;24.60;55.50;;;;;;4935807;29;20437;-74
2023/06/08 09:01:21;;;;;;;6.83;6.13;;;24.70;55.60;;;;;;4968966;28;20389;-74
2023/06/08 09:03:47;;;;;;;7.10;6.50;;;24.90;55.20;;;;;;4961738;29;20430;-73
2023/06/08 09:06:13;;;;;;;6.43;5.90;;;25.00;54.40;;;;;;4977474;28;20430;-76
2023/06/08 09:08:40;;;;;;;6.30;5.80;;;25.10;54.30;;;;;;4970720;29;20205;-75
2023/06/08 09:11:09;;;;;;;6.33;5.73;;;25.30;54.00;;;;;;4948761;29;20226;-74
2023/06/08 09:13:38;;;;;;;6.53;5.93;;;25.30;53.60;;;;;;4933265;29;20467;-73
2023/06/08 09:16:20;;;;;;;7.63;6.30;;;25.50;53.10;;;;;;4929131;29;20419;-74
2023/06/08 09:19:05;;;;;;;6.40;5.90;;;25.50;53.30;;;;;;4931409;29;20429;-74
2023/06/08 09:21:32;;;;;;;6.20;5.70;;;25.40;53.70;;;;;;4946897;29;20436;-76
2023/06/08 09:24:03;;;;;;;5.83;5.33;;;25.40;53.60;;;;;;4947614;29;20421;-74
2023/06/08 09:26:32;;;;;;;6.43;5.60;;;25.40;53.50;;;;;;4948342;29;20422;-75
2023/06/08 09:29:02;;;;;;;7.00;6.40;;;25.40;53.70;;;;;;4948971;29;20437;-75
2023/06/08 09:31:31;;;;;;;6.00;5.60;;;25.50;53.40;;;;;;4949310;29;20748;-75
2023/06/08 09:34:09;;;;;;;6.97;5.13;;;25.50;53.20;;;;;;4947174;29;20834;-75
2023/06/08 09:36:38;;;;;;;8.73;6.10;;;25.50;53.00;;;;;;4934009;29;20861;-74
2023/06/08 09:39:08;;;;;;;6.67;6.03;;;25.60;53.00;;;;;;4927762;29;20497;-75
2023/06/08 09:41:37;;;;;;;6.57;5.97;;;25.60;52.80;;;;;;4918529;29;20592;-76
2023/06/08 09:44:17;;;;;;;5.80;5.30;;;25.60;53.00;;;;;;4929304;29;20494;-75
2023/06/08 09:46:46;;;;;;;6.30;5.80;;;25.50;52.90;;;;;;4942592;29;20450;-78
2023/06/08 09:49:13;;;;;;;7.30;6.53;;;25.60;52.90;;;;;;4936535;29;20820;-73
2023/06/08 09:51:48;;;;;;;6.30;5.70;;;25.40;53.00;;;;;;4930445;29;20477;-74
2023/06/08 09:54:18;;;;;;;5.97;5.37;;;25.40;53.50;;;;;;4929593;29;20465;-74
2023/06/08 09:56:55;;;;;;;5.97;5.47;;;25.50;53.70;;;;;;4929897;29;20695;-74
2023/06/08 09:59:28;;;;;;;6.13;5.63;;;25.70;53.10;;;;;;4929142;29;20458;-73
2023/06/08 10:01:55;;;;;;;6.73;5.67;;;25.80;52.90;;;;;;4930058;29;20426;-77
2023/06/08 10:04:29;;;;;;;6.50;5.80;;;25.80;52.60;;;;;;4940286;29;20449;-76
2023/06/08 10:07:03;;;;;;;8.37;7.00;;;26.00;52.30;;;;;;4949741;29;20418;-74
2023/06/08 10:09:31;;;;;;;5.50;5.00;;;26.30;51.10;;;;;;4933983;29;20461;-76
2023/06/08 10:11:59;;;;;;;6.83;5.60;;;26.40;51.00;;;;;;4920178;29;20466;-75
2023/06/08 10:14:28;;;;;;;7.90;5.20;;;26.50;50.90;;;;;;4915193;29;20493;-79
2023/06/08 10:16:56;;;;;;;7.60;6.90;;;26.60;51.00;;;;;;4958905;29;20484;-76
2023/06/08 10:19:23;;;;;;;6.63;6.00;;;26.80;50.70;;;;;;4955710;29;20505;-76
2023/06/08 10:21:51;;;;;;;6.07;5.57;;;26.80;50.80;;;;;;4933597;29;20432;-78
2023/06/08 10:24:19;;;;;;;6.90;4.30;;;27.10;50.30;;;;;;4910819;29;20437;-76
2023/06/08 10:26:46;;;;;;;5.97;5.47;;;27.40;50.10;;;;;;4933000;29;20490;-74
2023/06/08 10:29:11;;;;;;;6.33;5.73;;;27.70;49.70;;;;;;4923440;29;20469;-75
2023/06/08 10:31:42;;;;;;;6.67;5.97;;;27.80;49.00;;;;;;4914867;29;20462;-78
2023/06/08 10:34:09;;;;;;;7.03;6.33;;;27.90;48.30;;;;;;4936714;29;20201;-76
2023/06/08 10:36:39;;;;;;;6.80;6.20;;;27.90;48.20;;;;;;4952721;29;20436;-74
2023/06/08 10:39:10;;;;;;;7.03;6.43;;;27.80;48.00;;;;;;4939396;29;20510;-74
2023/06/08 10:41:53;;;;;;;6.87;6.10;;;27.70;48.70;;;;;;4951214;29;20454;-76
2023/06/08 10:44:25;;;;;;;7.10;6.47;;;27.90;48.70;;;;;;4950603;29;20418;-75
2023/06/08 10:46:57;;;;;;;5.70;5.30;;;28.30;47.40;;;;;;4918050;29;20426;-75
2023/06/08 10:49:22;;;;;;;6.40;5.80;;;28.20;47.40;;;;;;4939966;29;20457;-74
2023/06/08 10:51:54;;;;;;;6.87;6.27;;;28.20;47.50;;;;;;4940404;29;20581;-78
2023/06/08 10:54:22;;;;;;;7.10;6.03;;;28.40;47.20;;;;;;4927819;29;20245;-74
2023/06/08 10:56:52;;;;;;;6.30;5.80;;;28.40;46.90;;;;;;4949679;29;20410;-75
2023/06/08 10:59:38;;;;;;;6.90;6.20;;;28.20;47.20;;;;;;4949491;29;20479;-78
2023/06/08 11:02:05;;;;;;;6.90;6.30;;;27.80;48.00;;;;;;4934705;29;20449;-78
2023/06/08 11:04:33;;;;;;;7.73;6.60;;;27.70;48.20;;;;;;4918505;29;20425;-76
2023/06/08 11:07:03;;;;;;;7.50;6.20;;;27.60;47.90;;;;;;4933222;29;20422;-78
2023/06/08 11:09:31;;;;;;;7.20;6.50;;;27.70;48.10;;;;;;4940965;29;20789;-78
2023/06/08 11:11:57;;;;;;;6.03;5.53;;;27.70;48.00;;;;;;4939904;29;20487;-77
2023/06/08 11:14:23;;;;;;;6.20;5.70;;;27.80;47.80;;;;;;4969252;29;20409;-77
2023/06/08 11:16:53;;;;;;;7.07;6.50;;;27.80;47.60;;;;;;4955439;29;20420;-77
2023/06/08 11:19:20;;;;;;;6.87;6.30;;;28.00;47.80;;;;;;4968024;29;20212;-76
2023/06/08 11:21:50;;;;;;;6.80;6.20;;;28.00;47.80;;;;;;4951228;29;20700;-74
2023/06/08 11:24:16;;;;;;;7.53;6.73;;;28.20;47.20;;;;;;4934760;29;20715;-77
2023/06/08 11:26:42;;;;;;;7.23;6.60;;;28.30;46.50;;;;;;4970043;29;20505;-76
2023/06/08 11:29:08;;;;;;;6.80;6.20;;;28.30;47.00;;;;;;4949641;29;20451;-78
2023/06/08 11:31:40;;;;;;;7.97;7.27;;;28.20;46.70;;;;;;4934105;29;20504;-77
2023/06/08 11:34:15;;;;;;;7.13;6.53;;;28.20;46.90;;;;;;4925354;29;20435;-77
2023/06/08 11:36:42;;;;;;;5.57;5.07;;;28.00;46.60;;;;;;4907123;29;20434;-77
2023/06/08 11:39:10;;;;;;;5.90;5.40;;;27.70;47.10;;;;;;4914512;29;20453;-75
2023/06/08 11:41:36;;;;;;;7.83;6.87;;;27.60;47.50;;;;;;4915424;29;20438;-78
2023/06/08 11:44:02;;;;;;;6.70;6.10;;;27.60;47.50;;;;;;4950291;29;20417;-77
2023/06/08 11:46:28;;;;;;;7.90;6.90;;;27.70;47.40;;;;;;4951614;29;20481;-79
2023/06/08 11:49:07;;;;;;;6.83;6.30;;;27.80;47.30;;;;;;4918042;29;20210;-75
2023/06/08 11:51:32;;;;;;;7.73;6.77;;;28.10;46.70;;;;;;4914541;29;20474;-77
2023/06/08 11:53:58;;;;;;;6.80;6.23;;;28.30;46.40;;;;;;4915867;29;20398;-76
2023/06/08 11:56:25;;;;;;;6.50;6.00;;;28.40;46.00;;;;;;4914985;29;20550;-78
2023/06/08 11:58:53;;;;;;;6.40;5.80;;;28.40;45.60;;;;;;4909987;29;20245;-75
2023/06/08 12:01:19;;;;;;;6.97;6.37;;;28.50;45.50;;;;;;4949767;29;20413;-76
2023/06/08 12:03:49;;;;;;;6.70;6.10;;;28.70;45.10;;;;;;4943727;29;20600;-77
2023/06/08 12:06:15;;;;;;;8.53;7.73;;;28.90;44.80;;;;;;4946485;29;20189;-76
2023/06/08 12:08:42;;;;;;;7.57;6.97;;;29.10;44.40;;;;;;4950252;29;20413;-77
2023/06/08 12:11:09;;;;;;;8.40;6.67;;;29.20;44.00;;;;;;4948519;29;20752;-75
2023/06/08 12:13:37;;;;;;;9.70;7.00;;;29.40;43.00;;;;;;4933204;29;20507;-76
2023/06/08 12:16:06;;;;;;;6.00;5.50;;;29.40;43.40;;;;;;4967618;29;20705;-77
2023/06/08 12:18:40;;;;;;;6.10;5.60;;;29.70;43.40;;;;;;4936180;29;20419;-78
2023/06/08 12:21:08;;;;;;;8.93;8.13;;;29.90;42.90;;;;;;4969463;29;20414;-76
2023/06/08 12:23:34;;;;;;;7.23;6.63;;;30.10;42.70;;;;;;4950539;29;20416;-74
2023/06/08 12:26:00;;;;;;;6.80;6.30;;;30.10;42.20;;;;;;4951694;29;20428;-78
2023/06/08 12:28:26;;;;;;;7.53;6.93;;;30.00;42.00;;;;;;4951523;29;20440;-75
2023/06/08 12:30:53;;;;;;;7.03;6.40;;;30.20;41.40;;;;;;4939163;29;20450;-77
2023/06/08 12:33:20;;;;;;;7.13;6.53;;;30.20;41.20;;;;;;4937174;29;20216;-76
2023/06/08 12:35:50;;;;;;;6.00;5.50;;;30.20;40.80;;;;;;4951638;29;20436;-76
2023/06/08 12:38:20;;;;;;;7.00;6.33;;;30.30;41.30;;;;;;4966083;29;20416;-77
2023/06/08 12:40:51;;;;;;;7.07;6.47;;;30.60;40.50;;;;;;4948611;29;20460;-75
2023/06/08 12:43:18;;;;;;;6.73;6.13;;;30.70;40.00;;;;;;4951314;29;20732;-78
2023/06/08 12:45:45;;;;;;;8.10;7.30;;;30.80;39.60;;;;;;4916223;29;20422;-76